createdAt,value
2019-05-16T00:00:52.313Z,90.50
2019-05-16T00:04:59.006Z,90.60
2019-05-16T00:09:04.615Z,90.70
2019-05-16T00:13:09.136Z,90.80
2019-05-16T00:17:13.671Z,90.90
2019-05-16T00:21:18.224Z,90.60
2019-05-16T00:25:22.545Z,90.70
2019-05-16T00:29:27.704Z,90.70
2019-05-16T00:33:32.470Z,90.80
2019-05-16T00:37:38.977Z,91.10
2019-05-16T00:41:43.179Z,91.20
2019-05-16T00:45:48.645Z,91.40
2019-05-16T00:49:53.339Z,91.10
2019-05-16T00:53:58.849Z,91.20
2019-05-16T00:58:04.156Z,91.20
2019-05-16T01:02:09.010Z,91.20
2019-05-16T01:06:19.163Z,91.40
2019-05-16T01:10:19.596Z,91.30
2019-05-16T01:14:23.860Z,91.40
2019-05-16T01:18:28.693Z,91.30
2019-05-16T01:22:33.347Z,91.50
2019-05-16T01:26:39.159Z,91.40
2019-05-16T01:30:44.116Z,91.30
2019-05-16T01:34:48.650Z,91.50
2019-05-16T01:38:53.364Z,91.40
2019-05-16T01:42:57.917Z,91.20
2019-05-16T01:47:02.371Z,91.20
2019-05-16T01:51:07.738Z,91.20
2019-05-16T01:55:12.383Z,91.10
2019-05-16T01:59:18.134Z,91.20
2019-05-16T02:03:22.977Z,91.50
2019-05-16T02:07:28.371Z,91.50
2019-05-16T02:11:32.822Z,91.50
2019-05-16T02:15:38.302Z,91.50
2019-05-16T02:19:43.251Z,91.60
2019-05-16T02:23:49.029Z,91.50
2019-05-16T02:27:54.403Z,91.40
2019-05-16T02:32:01.966Z,91.30
2019-05-16T02:36:05.324Z,91.60
2019-05-16T02:40:11.947Z,92.10
2019-05-16T02:44:16.741Z,91.70
2019-05-16T02:48:21.757Z,91.60
2019-05-16T02:52:26.686Z,91.40
2019-05-16T02:56:31.854Z,91.30
2019-05-16T03:00:41.943Z,91.50
2019-05-16T03:04:44.701Z,91.70
2019-05-16T03:08:50.769Z,91.70
2019-05-16T03:13:00.585Z,91.70
2019-05-16T03:17:03.923Z,91.70
2019-05-16T03:21:11.246Z,91.60
2019-05-16T03:25:16.045Z,91.90
2019-05-16T03:29:21.809Z,91.90
2019-05-16T03:33:35.080Z,91.50
2019-05-16T03:37:48.353Z,91.30
2019-05-16T03:41:41.463Z,91.10
2019-05-16T03:45:45.481Z,91.30
2019-05-16T03:49:51.745Z,91.30
2019-05-16T03:53:56.724Z,91.60
2019-05-16T03:58:01.669Z,91.70
2019-05-16T04:02:06.355Z,91.70
2019-05-16T04:06:11.775Z,91.70
2019-05-16T04:10:16.957Z,91.60
2019-05-16T04:14:21.688Z,91.60
2019-05-16T04:18:26.380Z,91.70
2019-05-16T04:22:32.735Z,92.00
2019-05-16T04:26:37.352Z,92.00
2019-05-16T04:30:41.956Z,92.30
2019-05-16T04:34:46.665Z,92.10
2019-05-16T04:38:51.485Z,92.60
2019-05-16T04:42:56.336Z,91.80
2019-05-16T04:47:01.737Z,90.90
2019-05-16T04:51:06.412Z,89.90
2019-05-16T04:55:12.156Z,88.00
2019-05-16T04:59:17.139Z,87.10
2019-05-16T05:03:23.246Z,84.50
2019-05-16T05:07:30.980Z,82.80
2019-05-16T05:11:34.151Z,81.40
2019-05-16T05:15:40.130Z,80.70
2019-05-16T05:19:44.948Z,79.30
2019-05-16T05:23:50.828Z,76.50
2019-05-16T05:27:55.702Z,76.10
2019-05-16T05:32:04.521Z,75.00
2019-05-16T05:36:06.571Z,74.60
2019-05-16T05:40:11.629Z,75.20
2019-05-16T05:44:16.147Z,75.90
2019-05-16T05:48:21.875Z,75.30
2019-05-16T05:52:26.798Z,73.00
2019-05-16T05:56:31.357Z,74.10
2019-05-16T06:00:35.914Z,72.70
2019-05-16T06:04:40.436Z,71.80
2019-05-16T06:08:44.970Z,71.60
2019-05-16T06:12:50.031Z,69.30
2019-05-16T06:16:54.853Z,68.10
2019-05-16T06:21:00.449Z,69.50
2019-05-16T06:25:05.663Z,69.10
2019-05-16T06:29:10.546Z,68.40
2019-05-16T06:33:15.172Z,66.70
2019-05-16T06:37:20.502Z,64.40
2019-05-16T06:41:25.189Z,65.50
2019-05-16T06:45:31.979Z,65.70
2019-05-16T06:49:36.076Z,64.70
2019-05-16T06:53:40.622Z,65.80
2019-05-16T06:57:45.249Z,66.50
2019-05-16T07:01:50.128Z,66.40
2019-05-16T07:05:54.983Z,65.40
2019-05-16T07:10:04.228Z,65.90
2019-05-16T07:14:05.899Z,66.80
2019-05-16T07:18:13.041Z,66.50
2019-05-16T07:22:16.698Z,68.10
2019-05-16T07:26:21.508Z,65.80
2019-05-16T07:30:26.147Z,67.10
2019-05-16T07:34:31.280Z,65.40
2019-05-16T07:38:36.023Z,66.70
2019-05-16T07:42:40.571Z,67.00
2019-05-16T07:46:45.229Z,66.10
2019-05-16T07:50:50.149Z,65.30
2019-05-16T07:54:54.982Z,64.70
2019-05-16T07:59:00.905Z,65.70
2019-05-16T08:03:05.707Z,66.00
2019-05-16T08:07:10.754Z,64.60
2019-05-16T08:11:15.435Z,65.30
2019-05-16T08:15:21.273Z,64.80
2019-05-16T08:19:26.173Z,65.20
2019-05-16T08:23:30.931Z,63.50
2019-05-16T08:27:35.711Z,64.30
2019-05-16T08:31:43.077Z,64.00
2019-05-16T08:35:46.570Z,63.30
2019-05-16T08:39:51.435Z,63.10
2019-05-16T08:43:56.039Z,63.20
2019-05-16T08:48:00.610Z,64.10
2019-05-16T08:52:05.264Z,64.20
2019-05-16T08:56:13.072Z,64.00
2019-05-16T09:00:17.159Z,65.70
2019-05-16T09:04:24.393Z,65.30
2019-05-16T09:08:27.959Z,65.10
2019-05-16T09:12:32.487Z,64.60
2019-05-16T09:16:37.281Z,63.80
2019-05-16T09:20:42.961Z,64.20
2019-05-16T09:24:48.281Z,62.30
2019-05-16T09:28:53.107Z,61.40
2019-05-16T09:32:58.778Z,62.20
2019-05-16T09:37:03.675Z,61.00
2019-05-16T09:41:08.439Z,61.40
2019-05-16T09:45:13.609Z,60.30
2019-05-16T09:49:24.236Z,57.80
2019-05-16T09:53:24.477Z,57.20
2019-05-16T09:57:29.000Z,57.30
2019-05-16T10:01:33.593Z,57.00
2019-05-16T10:05:38.120Z,57.60
2019-05-16T10:09:47.054Z,57.30
2019-05-16T10:13:48.889Z,56.50
2019-05-16T10:17:53.424Z,55.90
2019-05-16T10:22:00.241Z,57.00
2019-05-16T10:26:04.345Z,56.50
2019-05-16T10:30:09.523Z,56.60
2019-05-16T10:34:14.137Z,56.80
2019-05-16T10:38:18.689Z,56.10
2019-05-16T10:42:28.518Z,55.80
2019-05-16T10:46:29.633Z,55.90
2019-05-16T10:50:36.808Z,56.10
2019-05-16T10:54:54.127Z,56.00
2019-05-16T10:59:10.604Z,56.40
2019-05-16T11:02:53.387Z,55.50
2019-05-16T11:06:58.256Z,56.20
2019-05-16T11:11:02.836Z,57.70
2019-05-16T11:15:11.290Z,57.70
2019-05-16T11:19:21.325Z,57.30
2019-05-16T11:23:23.656Z,58.10
2019-05-16T11:27:28.147Z,57.80
2019-05-16T11:31:32.769Z,55.60
2019-05-16T11:35:38.092Z,56.90
2019-05-16T11:39:42.908Z,57.90
2019-05-16T11:43:47.548Z,58.80
2019-05-16T11:47:52.154Z,57.40
2019-05-16T11:51:57.891Z,59.60
2019-05-16T11:56:02.756Z,57.30
2019-05-16T12:00:09.174Z,59.00
2019-05-16T12:04:13.768Z,57.50
2019-05-16T12:08:18.455Z,57.30
2019-05-16T12:12:23.035Z,57.10
2019-05-16T12:16:27.756Z,57.90
2019-05-16T12:20:32.438Z,59.00
2019-05-16T12:24:40.733Z,58.70
2019-05-16T12:28:43.307Z,56.90
2019-05-16T12:32:47.828Z,57.90
2019-05-16T12:36:52.389Z,57.80
2019-05-16T12:40:57.002Z,59.30
2019-05-16T12:45:01.524Z,59.60
2019-05-16T12:49:07.024Z,61.00
2019-05-16T12:53:11.704Z,59.80
2019-05-16T12:57:18.246Z,58.20
2019-05-16T13:01:30.567Z,59.80
2019-05-16T13:05:29.319Z,58.50
2019-05-16T13:09:34.007Z,59.30
2019-05-16T13:13:38.599Z,59.20
2019-05-16T13:17:43.185Z,59.20
2019-05-16T13:21:47.814Z,59.40
2019-05-16T13:25:52.421Z,59.00
2019-05-16T13:29:58.125Z,59.80
2019-05-16T13:34:02.899Z,60.30
2019-05-16T13:38:08.382Z,64.70
2019-05-16T13:42:13.017Z,65.20
2019-05-16T13:46:17.673Z,66.80
2019-05-16T13:50:22.281Z,70.90
2019-05-16T13:54:27.033Z,67.20
2019-05-16T13:58:31.806Z,65.90
2019-05-16T14:02:37.923Z,63.50
2019-05-16T14:06:42.532Z,62.40
2019-05-16T14:10:48.783Z,63.80
2019-05-16T14:14:53.393Z,63.20
2019-05-16T14:18:58.008Z,62.50
2019-05-16T14:23:02.639Z,62.70
2019-05-16T14:27:07.196Z,62.90
2019-05-16T14:31:11.854Z,63.80
2019-05-16T14:35:16.639Z,64.50
2019-05-16T14:39:21.324Z,61.80
2019-05-16T14:43:27.193Z,61.90
2019-05-16T14:47:31.960Z,62.30
2019-05-16T14:51:38.456Z,62.30
2019-05-16T14:55:42.835Z,64.50
2019-05-16T14:59:47.498Z,63.00
2019-05-16T15:03:52.231Z,64.90
2019-05-16T15:07:57.005Z,64.00
2019-05-16T15:12:01.668Z,64.30
2019-05-16T15:16:07.654Z,64.80
2019-05-16T15:20:13.950Z,64.10
2019-05-16T15:24:18.714Z,63.70
2019-05-16T15:28:26.902Z,64.10
2019-05-16T15:32:31.840Z,63.30
2019-05-16T15:36:37.281Z,62.80
2019-05-16T15:40:41.999Z,65.00
2019-05-16T15:44:46.599Z,62.40
2019-05-16T15:48:51.466Z,63.00
2019-05-16T15:52:59.047Z,63.80
2019-05-16T15:57:02.886Z,63.90
2019-05-16T16:01:07.690Z,64.00
2019-05-16T16:05:12.564Z,61.40
2019-05-16T16:09:17.440Z,61.10
2019-05-16T16:13:22.110Z,60.30
2019-05-16T16:17:29.189Z,60.70
2019-05-16T16:21:32.991Z,61.00
2019-05-16T16:25:37.657Z,60.80
2019-05-16T16:29:42.361Z,61.70
2019-05-16T16:33:47.079Z,60.00
2019-05-16T16:37:51.691Z,62.40
2019-05-16T16:41:56.912Z,61.60
2019-05-16T16:46:08.801Z,62.80
2019-05-16T16:50:08.636Z,62.00
2019-05-16T16:54:13.245Z,60.70
2019-05-16T16:58:17.847Z,62.20
2019-05-16T17:02:22.492Z,62.10
2019-05-16T17:06:27.216Z,63.50
2019-05-16T17:10:31.821Z,62.90
2019-05-16T17:14:37.027Z,63.00
2019-05-16T17:18:41.916Z,62.20
2019-05-16T17:22:46.817Z,63.70
2019-05-16T17:26:51.557Z,63.00
2019-05-16T17:30:56.785Z,63.90
2019-05-16T17:35:01.532Z,63.70
2019-05-16T17:39:06.414Z,64.60
2019-05-16T17:43:10.399Z,65.00
2019-05-16T17:47:17.177Z,65.50
2019-05-16T17:51:21.356Z,65.00
2019-05-16T17:55:26.999Z,65.80
2019-05-16T17:59:31.608Z,65.50
2019-05-16T18:03:37.242Z,65.90
2019-05-16T18:07:42.148Z,66.60
2019-05-16T18:11:46.853Z,66.80
2019-05-16T18:15:51.689Z,66.40
2019-05-16T18:19:57.172Z,67.40
2019-05-16T18:24:02.034Z,68.00
2019-05-16T18:28:07.849Z,68.50
2019-05-16T18:32:12.824Z,68.90
2019-05-16T18:36:17.301Z,70.10
2019-05-16T18:40:22.169Z,70.70
2019-05-16T18:44:27.270Z,71.50
2019-05-16T18:48:31.953Z,72.90
2019-05-16T18:52:37.566Z,74.20
2019-05-16T18:56:42.331Z,74.50
2019-05-16T19:00:46.892Z,75.40
2019-05-16T19:04:51.454Z,76.20
2019-05-16T19:08:56.368Z,76.60
2019-05-16T19:13:02.475Z,77.00
2019-05-16T19:17:20.267Z,78.10
2019-05-16T19:21:13.460Z,78.10
2019-05-16T19:25:18.543Z,78.50
2019-05-16T19:29:26.293Z,80.00
2019-05-16T19:33:30.296Z,82.20
2019-05-16T19:37:38.011Z,86.40
2019-05-16T19:41:41.374Z,89.00
2019-05-16T19:45:46.510Z,90.70
2019-05-16T19:49:51.258Z,91.20
2019-05-16T19:53:56.576Z,91.20
2019-05-16T19:58:01.359Z,92.20
2019-05-16T20:02:07.648Z,92.80
2019-05-16T20:06:12.501Z,93.20
2019-05-16T20:10:18.110Z,93.00
2019-05-16T20:14:22.762Z,93.80
2019-05-16T20:18:27.617Z,93.90
2019-05-16T20:22:32.449Z,93.90
2019-05-16T20:26:37.387Z,94.10
2019-05-16T20:30:42.298Z,94.30
2019-05-16T20:34:47.066Z,94.30
2019-05-16T20:38:51.697Z,94.30
2019-05-16T20:42:59.505Z,94.40
2019-05-16T20:47:04.344Z,94.70
2019-05-16T20:51:09.003Z,94.30
2019-05-16T20:55:14.587Z,94.80
2019-05-16T20:59:19.209Z,94.50
2019-05-16T21:03:23.768Z,94.50
2019-05-16T21:07:28.301Z,94.90
2019-05-16T21:11:32.918Z,94.90
2019-05-16T21:15:37.548Z,95.40
2019-05-16T21:19:42.084Z,95.20
2019-05-16T21:23:47.048Z,95.10
2019-05-16T21:27:51.800Z,95.00
2019-05-16T21:31:56.630Z,94.70
2019-05-16T21:36:01.400Z,95.00
2019-05-16T21:40:08.054Z,95.50
2019-05-16T21:44:13.555Z,95.60
2019-05-16T21:48:19.417Z,95.40
2019-05-16T21:52:24.286Z,95.70
2019-05-16T21:56:28.930Z,95.90
2019-05-16T22:00:43.793Z,95.80
2019-05-16T22:04:48.456Z,95.70
2019-05-16T22:08:53.051Z,96.00
2019-05-16T22:12:57.910Z,96.30
2019-05-16T22:17:02.643Z,96.30
2019-05-16T22:21:07.728Z,96.30
2019-05-16T22:25:12.727Z,96.10
2019-05-16T22:29:17.244Z,96.30
2019-05-16T22:33:21.798Z,96.30
2019-05-16T22:37:26.628Z,96.20
2019-05-16T22:41:31.335Z,96.10
2019-05-16T22:45:37.349Z,96.30
2019-05-16T22:49:42.535Z,96.00
2019-05-16T22:53:47.096Z,96.00
2019-05-16T22:57:51.743Z,96.20
2019-05-16T23:01:56.933Z,96.40
2019-05-16T23:06:01.797Z,96.40
2019-05-16T23:10:07.465Z,96.30
2019-05-16T23:14:12.356Z,96.50
2019-05-16T23:18:17.316Z,96.60
2019-05-16T23:22:22.032Z,96.40
2019-05-16T23:26:26.965Z,96.60
2019-05-16T23:30:31.731Z,96.40
2019-05-16T23:34:37.305Z,96.70
2019-05-16T23:38:42.051Z,96.40
2019-05-16T23:42:46.738Z,96.50
2019-05-16T23:46:51.282Z,96.70
2019-05-16T23:50:56.960Z,96.70
2019-05-16T23:55:01.942Z,96.70
2019-05-16T23:59:06.736Z,96.80
